Time;durP1;ratioP1;P1;durP2;ratioP2;P2;SDS_P1;SDS_P2;PMS_P1;PMS_P2;Temp;Humidity;BMP_temperature;BMP_pressure;BME280_temperature;BME280_humidity;BME280_pressure;Samples;Min_cycle;Max_cycle;Signal;HPM_P1;HPM_P2
2022/09/17 00:00:30;;;;;;;3.85;3.00;;;16.60;72.20;;;;;;5096254;28;20024;-70
2022/09/17 00:02:56;;;;;;;4.13;3.00;;;16.60;72.40;;;;;;5096001;28;20105;-70
2022/09/17 00:05:23;;;;;;;3.97;3.40;;;16.60;72.60;;;;;;5078085;28;20480;-70
2022/09/17 00:07:50;;;;;;;3.97;3.20;;;16.60;72.70;;;;;;5077975;28;20374;-69
2022/09/17 00:10:16;;;;;;;3.60;3.00;;;16.60;72.80;;;;;;5095966;28;20039;-69
2022/09/17 00:12:41;;;;;;;3.92;3.33;;;16.60;73.00;;;;;;5077917;28;20036;-67
2022/09/17 00:15:08;;;;;;;4.88;3.80;;;16.60;73.10;;;;;;5095914;28;20085;-69
2022/09/17 00:17:34;;;;;;;4.53;3.50;;;16.60;73.30;;;;;;5077551;28;20024;-68
2022/09/17 00:19:59;;;;;;;4.50;3.67;;;16.50;73.30;;;;;;5096283;28;20094;-70
2022/09/17 00:22:25;;;;;;;4.45;3.60;;;16.50;73.40;;;;;;5095921;28;20048;-70
2022/09/17 00:24:51;;;;;;;5.38;3.40;;;16.50;73.50;;;;;;5077649;28;20074;-70
2022/09/17 00:27:16;;;;;;;4.32;3.70;;;16.50;73.60;;;;;;5077620;28;20028;-70
2022/09/17 00:29:42;;;;;;;3.70;3.38;;;16.50;73.60;;;;;;5095694;28;20077;-69
2022/09/17 00:32:08;;;;;;;4.57;3.60;;;16.50;73.60;;;;;;5095602;28;20105;-69
2022/09/17 00:34:34;;;;;;;3.72;3.30;;;16.50;73.70;;;;;;5095344;28;20111;-70
2022/09/17 00:36:59;;;;;;;3.72;3.33;;;16.50;73.80;;;;;;5095576;28;20063;-69
2022/09/17 00:39:25;;;;;;;4.00;3.60;;;16.50;73.90;;;;;;5095615;28;20024;-70
2022/09/17 00:41:51;;;;;;;3.50;3.20;;;16.40;73.90;;;;;;5084486;28;20055;-70
2022/09/17 00:44:52;;;;;;;4.13;3.53;;;16.40;73.90;;;;;;5095321;28;20095;-69
2022/09/17 00:47:32;;;;;;;4.35;3.60;;;16.40;74.20;;;;;;5095456;28;20031;-69
2022/09/17 00:50:03;;;;;;;4.75;3.55;;;16.40;74.20;;;;;;5095414;28;20060;-68
2022/09/17 00:52:36;;;;;;;3.50;3.20;;;16.30;74.20;;;;;;5095223;28;20035;-69
2022/09/17 00:55:11;;;;;;;4.90;3.75;;;16.30;74.30;;;;;;5095359;28;20024;-69
2022/09/17 00:57:38;;;;;;;4.70;3.67;;;16.20;74.50;;;;;;5095235;28;20473;-68
2022/09/17 01:00:07;;;;;;;4.15;3.75;;;16.20;74.40;;;;;;5094978;28;20051;-68
2022/09/17 01:02:33;;;;;;;4.20;3.80;;;16.20;74.60;;;;;;5094576;28;20020;-68
2022/09/17 01:04:59;;;;;;;4.53;3.70;;;16.10;74.80;;;;;;5094325;28;20028;-69
2022/09/17 01:07:34;;;;;;;3.97;3.47;;;16.10;75.00;;;;;;5094843;28;20446;-67
2022/09/17 01:10:12;;;;;;;4.50;3.20;;;16.10;75.20;;;;;;5094343;28;20035;-69
2022/09/17 01:13:01;;;;;;;3.85;3.45;;;16.10;75.20;;;;;;5094903;28;20470;-68
2022/09/17 01:15:33;;;;;;;4.40;3.47;;;16.10;75.30;;;;;;5095105;28;20024;-68
2022/09/17 01:18:26;;;;;;;4.07;3.40;;;16.10;75.30;;;;;;5094770;28;20366;-69
2022/09/17 01:21:16;;;;;;;4.88;3.47;;;16.10;75.30;;;;;;5094721;28;20439;-69
2022/09/17 01:23:47;;;;;;;3.50;3.20;;;16.10;75.40;;;;;;5094639;28;20066;-68
2022/09/17 01:26:22;;;;;;;4.57;3.65;;;16.10;75.20;;;;;;5094374;28;20115;-69
2022/09/17 01:28:56;;;;;;;4.35;3.70;;;16.10;75.20;;;;;;5094368;28;20076;-69
2022/09/17 01:31:34;;;;;;;4.30;3.70;;;16.10;75.20;;;;;;5094401;28;20035;-68
2022/09/17 01:34:32;;;;;;;3.85;3.30;;;16.10;75.20;;;;;;5093493;28;20081;-69
2022/09/17 01:37:08;;;;;;;4.65;3.70;;;16.10;75.20;;;;;;5094445;28;20462;-69
2022/09/17 01:39:42;;;;;;;5.10;3.38;;;16.20;75.20;;;;;;5094412;28;20118;-68
2022/09/17 01:42:34;;;;;;;4.35;3.60;;;16.20;75.20;;;;;;5094452;28;20132;-69
2022/09/17 01:45:36;;;;;;;5.68;4.10;;;16.20;75.20;;;;;;5094262;28;20101;-70
2022/09/17 01:48:09;;;;;;;3.97;3.50;;;16.20;75.20;;;;;;5042216;28;20043;-68
2022/09/17 01:50:55;;;;;;;4.40;3.60;;;16.30;75.10;;;;;;5094218;28;20028;-69
2022/09/17 01:53:26;;;;;;;4.50;3.58;;;16.30;75.20;;;;;;5094257;28;20020;-69
2022/09/17 01:55:54;;;;;;;4.20;3.28;;;16.30;75.10;;;;;;5094413;28;20035;-68
2022/09/17 01:58:28;;;;;;;3.88;3.40;;;16.30;75.10;;;;;;5094179;28;20086;-69
2022/09/17 02:01:03;;;;;;;6.00;4.10;;;16.30;75.10;;;;;;5094434;28;20056;-68
2022/09/17 02:03:34;;;;;;;4.65;3.83;;;16.40;75.10;;;;;;5094148;28;20046;-68
2022/09/17 02:06:08;;;;;;;4.90;4.03;;;16.40;75.10;;;;;;5094128;28;20435;-69
2022/09/17 02:08:47;;;;;;;6.05;4.18;;;16.40;75.10;;;;;;5094814;28;20103;-69
2022/09/17 02:11:14;;;;;;;4.90;4.32;;;16.40;75.20;;;;;;5093845;28;20039;-69
2022/09/17 02:13:49;;;;;;;5.45;4.30;;;16.40;75.10;;;;;;5093724;28;20035;-68
2022/09/17 02:16:23;;;;;;;4.50;3.92;;;16.40;75.20;;;;;;5093697;28;20077;-70
2022/09/17 02:19:16;;;;;;;5.53;3.50;;;16.30;75.30;;;;;;5075878;28;20028;-69
2022/09/17 02:21:52;;;;;;;4.30;3.88;;;16.30;75.40;;;;;;5094087;28;20023;-69
2022/09/17 02:24:47;;;;;;;4.85;3.70;;;16.30;75.50;;;;;;5075811;28;20050;-68
2022/09/17 02:27:23;;;;;;;4.53;3.78;;;16.30;75.40;;;;;;5055170;28;20170;-69
2022/09/17 02:29:49;;;;;;;4.43;3.60;;;16.40;75.40;;;;;;5075748;28;20051;-69
2022/09/17 02:32:15;;;;;;;5.40;4.20;;;16.40;75.40;;;;;;5093726;28;20032;-69
2022/09/17 02:34:41;;;;;;;5.40;4.45;;;16.40;75.40;;;;;;5075564;28;20050;-69
2022/09/17 02:37:07;;;;;;;4.50;3.97;;;16.40;75.40;;;;;;5075326;28;20031;-70
2022/09/17 02:39:33;;;;;;;4.75;3.88;;;16.40;75.50;;;;;;5093676;28;20034;-68
2022/09/17 02:42:21;;;;;;;7.50;4.60;;;16.40;75.40;;;;;;5093487;28;20040;-69
2022/09/17 02:44:59;;;;;;;7.80;4.90;;;16.40;75.50;;;;;;5093715;28;20052;-69
2022/09/17 02:47:48;;;;;;;5.93;5.05;;;16.40;75.40;;;;;;5093560;28;20028;-69
2022/09/17 02:50:28;;;;;;;5.40;4.30;;;16.40;75.50;;;;;;5075358;28;20051;-69
2022/09/17 02:53:12;;;;;;;6.18;4.60;;;16.40;75.50;;;;;;5075464;28;20032;-69
2022/09/17 02:55:45;;;;;;;5.55;4.10;;;16.40;75.60;;;;;;5093527;28;20024;-69
2022/09/17 02:58:16;;;;;;;5.45;4.45;;;16.40;75.50;;;;;;5093287;28;20462;-70
2022/09/17 03:00:43;;;;;;;5.25;4.30;;;16.40;75.60;;;;;;5093701;28;20039;-69
2022/09/17 03:03:16;;;;;;;5.80;4.13;;;16.40;75.60;;;;;;5093499;28;20161;-69
2022/09/17 03:05:43;;;;;;;5.32;4.35;;;16.40;75.60;;;;;;5093851;28;20024;-69
2022/09/17 03:08:13;;;;;;;5.63;4.57;;;16.40;75.50;;;;;;5093762;28;20035;-70
2022/09/17 03:10:39;;;;;;;4.60;3.75;;;16.40;75.50;;;;;;5093041;28;20039;-67
2022/09/17 03:13:05;;;;;;;5.47;4.30;;;16.40;75.60;;;;;;5075375;28;20032;-68
2022/09/17 03:15:31;;;;;;;6.80;4.15;;;16.40;75.60;;;;;;5093281;28;20060;-69
2022/09/17 03:17:56;;;;;;;5.68;4.10;;;16.40;75.70;;;;;;5093110;28;20064;-71
2022/09/17 03:20:22;;;;;;;4.60;3.92;;;16.40;75.70;;;;;;5093385;28;20082;-69
2022/09/17 03:22:48;;;;;;;4.97;3.95;;;16.40;75.70;;;;;;5075085;28;20043;-72
2022/09/17 03:25:13;;;;;;;4.88;4.10;;;16.50;75.80;;;;;;5093378;28;20028;-70
2022/09/17 03:27:39;;;;;;;4.70;4.10;;;16.50;75.70;;;;;;5094646;28;20365;-69
2022/09/17 03:30:06;;;;;;;4.00;3.55;;;16.50;75.70;;;;;;5096839;28;20537;-70
2022/09/17 03:32:32;;;;;;;5.28;3.90;;;16.50;75.60;;;;;;5096777;28;20393;-69
2022/09/17 03:34:58;;;;;;;4.25;3.72;;;16.50;76.10;;;;;;5096594;28;20367;-70
2022/09/17 03:37:23;;;;;;;3.80;3.38;;;16.50;75.50;;;;;;5096788;28;20076;-69
2022/09/17 03:39:49;;;;;;;5.05;3.72;;;16.50;75.50;;;;;;5078279;28;20039;-69
2022/09/17 03:42:15;;;;;;;5.35;4.07;;;16.50;75.40;;;;;;5096674;28;20130;-69
2022/09/17 03:44:40;;;;;;;5.03;3.90;;;16.50;75.30;;;;;;5096866;28;20040;-69
2022/09/17 03:47:06;;;;;;;4.43;3.88;;;16.50;75.80;;;;;;5096382;28;20032;-69
2022/09/17 03:49:32;;;;;;;4.55;3.70;;;16.50;75.10;;;;;;5078043;28;20031;-69
2022/09/17 03:51:58;;;;;;;8.07;3.88;;;16.50;75.10;;;;;;5096486;28;20111;-71
2022/09/17 03:54:24;;;;;;;5.60;3.70;;;16.50;75.10;;;;;;5078443;28;20035;-69
2022/09/17 03:56:50;;;;;;;4.47;3.97;;;16.50;75.00;;;;;;5078594;28;20053;-68
2022/09/17 03:59:16;;;;;;;4.82;4.03;;;16.50;75.10;;;;;;5096279;28;20028;-69
2022/09/17 04:01:41;;;;;;;4.55;3.47;;;16.50;75.30;;;;;;5096278;28;20024;-70
2022/09/17 04:04:07;;;;;;;4.43;3.65;;;16.50;75.40;;;;;;5096385;28;20045;-69
2022/09/17 04:06:33;;;;;;;4.82;4.10;;;16.50;75.50;;;;;;5078139;28;20028;-71
2022/09/17 04:08:59;;;;;;;5.00;4.10;;;16.50;75.60;;;;;;5077786;28;20059;-69
2022/09/17 04:11:26;;;;;;;4.60;4.00;;;16.50;75.60;;;;;;5095857;28;20103;-70
2022/09/17 04:13:51;;;;;;;4.97;3.80;;;16.50;75.80;;;;;;5096073;28;20024;-69
2022/09/17 04:16:17;;;;;;;5.63;4.30;;;16.50;75.90;;;;;;5095979;28;20029;-69
2022/09/17 04:18:43;;;;;;;4.57;4.07;;;16.50;76.60;;;;;;5095844;28;20035;-69
2022/09/17 04:21:08;;;;;;;4.68;3.70;;;16.50;76.10;;;;;;5095953;28;20355;-71
2022/09/17 04:23:34;;;;;;;4.82;4.10;;;16.50;76.20;;;;;;5095618;28;20524;-70
2022/09/17 04:26:00;;;;;;;6.05;4.65;;;16.50;76.30;;;;;;5096037;28;20032;-69
2022/09/17 04:28:25;;;;;;;4.32;3.72;;;16.50;76.40;;;;;;5095707;28;20039;-70
2022/09/17 04:30:51;;;;;;;4.45;3.88;;;16.50;76.50;;;;;;5077311;28;20488;-69
2022/09/17 04:33:16;;;;;;;5.05;4.30;;;16.60;76.60;;;;;;5095628;28;20067;-69
2022/09/17 04:35:42;;;;;;;4.88;3.83;;;16.60;76.70;;;;;;5095645;28;20024;-70
2022/09/17 04:38:08;;;;;;;4.93;4.18;;;16.60;76.70;;;;;;5076564;28;20028;-70
2022/09/17 04:40:34;;;;;;;4.82;3.95;;;16.60;76.80;;;;;;5076838;28;20070;-68
2022/09/17 04:43:01;;;;;;;4.43;3.88;;;16.60;76.80;;;;;;5095782;28;20044;-70
2022/09/17 04:45:28;;;;;;;4.65;3.90;;;16.60;76.90;;;;;;5095659;28;20024;-70
2022/09/17 04:47:54;;;;;;;4.22;3.67;;;16.70;77.00;;;;;;5095278;28;20050;-69
2022/09/17 04:50:20;;;;;;;4.50;4.00;;;16.70;77.00;;;;;;5077050;28;20111;-70
2022/09/17 04:52:47;;;;;;;5.10;4.05;;;16.70;77.10;;;;;;5077089;28;20119;-69
2022/09/17 04:55:13;;;;;;;4.15;3.70;;;16.70;77.10;;;;;;5095022;28;20373;-70
2022/09/17 04:57:48;;;;;;;4.97;4.10;;;16.70;77.20;;;;;;5095447;28;20043;-70
2022/09/17 05:00:16;;;;;;;4.68;3.85;;;16.80;77.40;;;;;;5095260;28;20077;-69
2022/09/17 05:02:46;;;;;;;6.63;4.47;;;16.80;77.30;;;;;;5095058;28;20023;-69
2022/09/17 05:05:13;;;;;;;5.82;4.30;;;16.80;77.40;;;;;;5076829;28;20024;-69
2022/09/17 05:07:39;;;;;;;6.60;4.72;;;16.80;77.50;;;;;;5076765;28;20036;-71
2022/09/17 05:10:06;;;;;;;6.25;4.80;;;16.80;77.50;;;;;;5076841;28;20474;-69
2022/09/17 05:12:32;;;;;;;5.95;4.65;;;16.90;77.60;;;;;;5094818;28;20115;-69
2022/09/17 05:14:57;;;;;;;7.50;4.63;;;16.90;77.60;;;;;;5076658;28;20503;-69
2022/09/17 05:17:23;;;;;;;4.72;4.18;;;16.90;77.60;;;;;;5076511;28;20073;-70
2022/09/17 05:19:49;;;;;;;6.20;4.28;;;16.90;77.60;;;;;;5094719;28;20101;-69
2022/09/17 05:22:14;;;;;;;5.20;4.18;;;16.90;77.40;;;;;;5094794;28;20026;-70
2022/09/17 05:24:40;;;;;;;5.47;4.20;;;16.90;77.40;;;;;;5094771;28;20381;-70
2022/09/17 05:27:07;;;;;;;4.85;4.05;;;17.00;77.30;;;;;;5076445;28;20446;-69
2022/09/17 05:29:32;;;;;;;6.03;4.05;;;17.00;77.20;;;;;;5076560;28;20370;-69
2022/09/17 05:31:58;;;;;;;6.85;4.07;;;17.00;77.10;;;;;;5094629;28;20039;-72
2022/09/17 05:34:24;;;;;;;4.93;4.00;;;17.00;77.10;;;;;;5076085;28;20028;-70
2022/09/17 05:36:50;;;;;;;4.72;3.88;;;17.10;77.10;;;;;;5076904;28;20455;-69
2022/09/17 05:39:16;;;;;;;4.65;4.15;;;17.10;77.00;;;;;;5076667;28;20031;-70
2022/09/17 05:41:42;;;;;;;5.32;4.22;;;17.10;76.90;;;;;;5079774;28;20393;-69
2022/09/17 05:44:07;;;;;;;5.25;4.45;;;17.20;76.90;;;;;;5094256;28;20073;-70
2022/09/17 05:46:34;;;;;;;5.07;4.10;;;17.30;76.90;;;;;;5094207;28;20097;-70
2022/09/17 05:49:00;;;;;;;5.25;3.60;;;17.30;76.90;;;;;;5094037;28;20028;-70
2022/09/17 05:51:25;;;;;;;6.20;4.47;;;17.30;76.90;;;;;;5090905;28;20032;-71
2022/09/17 05:53:54;;;;;;;6.28;4.28;;;17.40;76.90;;;;;;5093323;28;20432;-70
2022/09/17 05:56:20;;;;;;;5.22;3.97;;;17.40;76.80;;;;;;5093480;28;20081;-69
2022/09/17 05:58:46;;;;;;;4.63;4.05;;;17.40;76.80;;;;;;5093647;28;20035;-69
2022/09/17 06:01:15;;;;;;;6.13;4.25;;;17.40;76.70;;;;;;5092065;28;20828;-70
2022/09/17 06:03:41;;;;;;;5.85;4.50;;;17.50;76.70;;;;;;5091513;28;20027;-74
2022/09/17 06:06:08;;;;;;;6.53;5.07;;;17.50;76.70;;;;;;5093427;28;20024;-71
2022/09/17 06:08:35;;;;;;;6.20;5.07;;;17.50;76.70;;;;;;5092994;28;20024;-73
2022/09/17 06:11:05;;;;;;;5.65;4.97;;;17.40;76.70;;;;;;5089102;28;20086;-73
2022/09/17 06:13:32;;;;;;;6.35;5.07;;;17.40;76.80;;;;;;5093110;28;20020;-72
2022/09/17 06:15:58;;;;;;;5.28;4.63;;;17.40;76.90;;;;;;5093255;28;20032;-72
2022/09/17 06:18:24;;;;;;;6.18;5.10;;;17.40;76.90;;;;;;5093081;28;20141;-71
2022/09/17 06:20:57;;;;;;;5.80;4.60;;;17.40;76.90;;;;;;5092882;28;20110;-76
2022/09/17 06:23:23;;;;;;;5.50;4.47;;;17.40;76.90;;;;;;5090658;28;20385;-71
2022/09/17 06:25:54;;;;;;;5.72;4.75;;;17.50;77.00;;;;;;5092868;28;20020;-72
2022/09/17 06:28:20;;;;;;;5.82;4.80;;;17.50;77.10;;;;;;5071845;28;20029;-72
2022/09/17 06:30:46;;;;;;;7.07;4.43;;;17.60;77.10;;;;;;5092537;28;20043;-72
2022/09/17 06:33:12;;;;;;;6.28;4.63;;;17.60;77.10;;;;;;5092608;28;20036;-73
2022/09/17 06:35:37;;;;;;;5.22;4.15;;;17.70;77.10;;;;;;5092706;28;20255;-71
2022/09/17 06:38:04;;;;;;;5.38;4.43;;;17.70;77.30;;;;;;5093408;28;20028;-74
2022/09/17 06:40:30;;;;;;;5.50;4.72;;;17.70;77.10;;;;;;5093100;28;20028;-74
2022/09/17 06:42:59;;;;;;;6.82;5.45;;;17.70;77.10;;;;;;5092190;28;20056;-75
2022/09/17 06:45:25;;;;;;;5.78;4.85;;;17.80;77.10;;;;;;5092951;28;20469;-71
2022/09/17 06:47:52;;;;;;;6.05;4.82;;;17.80;77.10;;;;;;5092513;28;20477;-72
2022/09/17 06:50:17;;;;;;;5.43;4.75;;;17.90;77.00;;;;;;5074679;28;20028;-73
2022/09/17 06:52:52;;;;;;;5.90;5.15;;;18.00;77.00;;;;;;5074489;28;20373;-72
2022/09/17 06:55:17;;;;;;;;;;;18.00;76.80;;;;;;5092890;28;20020;-72
2022/09/17 06:57:44;;;;;;;4.95;4.20;;;18.00;76.80;;;;;;5092855;28;19915;-73
2022/09/17 07:00:11;;;;;;;5.85;4.13;;;18.10;76.60;;;;;;5092861;28;20111;-71
2022/09/17 07:02:37;;;;;;;5.68;4.30;;;18.10;76.50;;;;;;5073390;28;20024;-73
2022/09/17 07:05:04;;;;;;;5.43;4.45;;;18.10;76.30;;;;;;5096069;28;20035;-72
2022/09/17 07:07:30;;;;;;;4.90;3.70;;;18.10;76.20;;;;;;5096010;28;20047;-71
2022/09/17 07:09:55;;;;;;;4.63;3.72;;;18.20;76.20;;;;;;5077588;28;20032;-71
2022/09/17 07:12:21;;;;;;;4.72;4.00;;;18.10;76.00;;;;;;5078092;28;20481;-71
2022/09/17 07:14:47;;;;;;;4.40;3.67;;;18.10;76.00;;;;;;5078461;28;20028;-71
2022/09/17 07:17:14;;;;;;;4.63;3.83;;;18.20;76.50;;;;;;5096961;28;20059;-72
2022/09/17 07:19:39;;;;;;;4.65;3.75;;;18.10;75.70;;;;;;5097186;28;20107;-72
2022/09/17 07:22:06;;;;;;;4.63;3.83;;;18.20;75.70;;;;;;5096978;28;20056;-71
2022/09/17 07:24:32;;;;;;;4.82;3.83;;;18.10;75.70;;;;;;5097149;28;20028;-72
2022/09/17 07:26:58;;;;;;;5.10;4.20;;;18.10;75.60;;;;;;5096823;28;20050;-77
2022/09/17 07:29:26;;;;;;;5.78;4.65;;;18.10;75.40;;;;;;5078554;28;20114;-72
2022/09/17 07:31:52;;;;;;;5.50;4.88;;;18.10;75.50;;;;;;5096751;28;20039;-73
2022/09/17 07:34:18;;;;;;;5.07;4.35;;;18.10;75.60;;;;;;5097080;28;20390;-72
2022/09/17 07:36:44;;;;;;;5.60;4.45;;;18.00;75.70;;;;;;5096913;28;20024;-71
2022/09/17 07:39:12;;;;;;;4.65;4.10;;;18.10;75.90;;;;;;5096702;28;20024;-72
2022/09/17 07:41:38;;;;;;;4.53;4.07;;;18.00;75.90;;;;;;5096679;28;20052;-72
2022/09/17 07:44:06;;;;;;;4.50;3.85;;;18.00;76.00;;;;;;5097095;28;20024;-72
2022/09/17 07:46:32;;;;;;;4.95;4.22;;;18.00;76.00;;;;;;5078990;28;20032;-71
2022/09/17 07:48:57;;;;;;;5.43;4.80;;;18.00;76.10;;;;;;5096497;28;20107;-73
2022/09/17 07:51:27;;;;;;;5.95;4.53;;;18.00;76.10;;;;;;5096280;28;20119;-71
2022/09/17 07:53:54;;;;;;;4.43;4.00;;;18.00;76.10;;;;;;5096231;28;20095;-72
2022/09/17 07:56:21;;;;;;;4.82;4.15;;;18.00;76.50;;;;;;5096403;28;20020;-72
2022/09/17 07:58:47;;;;;;;5.47;4.00;;;18.00;76.30;;;;;;5096603;28;20099;-71
2022/09/17 08:01:15;;;;;;;4.50;3.85;;;18.00;76.40;;;;;;5078379;28;20123;-72
2022/09/17 08:03:42;;;;;;;4.75;4.05;;;18.10;76.40;;;;;;5096173;28;20103;-71
2022/09/17 08:06:12;;;;;;;6.03;4.45;;;18.10;76.40;;;;;;5078387;28;20476;-72
2022/09/17 08:08:39;;;;;;;4.78;4.00;;;18.10;76.50;;;;;;5077750;28;20036;-73
2022/09/17 08:11:13;;;;;;;4.22;3.70;;;18.10;76.50;;;;;;5096336;28;20032;-74
2022/09/17 08:13:39;;;;;;;4.10;3.65;;;18.10;76.50;;;;;;5077534;28;20028;-71
2022/09/17 08:16:07;;;;;;;4.15;3.50;;;18.10;76.50;;;;;;5077697;28;20024;-72
2022/09/17 08:18:34;;;;;;;4.68;3.65;;;18.10;76.40;;;;;;5095803;28;20081;-73
2022/09/17 08:21:02;;;;;;;5.38;4.20;;;18.10;76.40;;;;;;5095842;28;20035;-70
2022/09/17 08:23:29;;;;;;;6.15;4.68;;;18.10;76.30;;;;;;5096107;28;20468;-72
2022/09/17 08:25:56;;;;;;;6.22;4.97;;;18.10;76.30;;;;;;5096112;28;20024;-73
2022/09/17 08:28:24;;;;;;;8.45;5.60;;;18.10;76.40;;;;;;5095606;28;20028;-71
2022/09/17 08:30:51;;;;;;;8.30;5.80;;;18.10;76.50;;;;;;5077508;28;20039;-71
2022/09/17 08:33:17;;;;;;;8.55;6.22;;;18.10;76.50;;;;;;5095650;28;20028;-72
2022/09/17 08:35:52;;;;;;;7.70;5.68;;;18.10;76.60;;;;;;5077367;28;20093;-71
2022/09/17 08:38:19;;;;;;;8.07;5.63;;;18.10;76.60;;;;;;5096066;28;20032;-72
2022/09/17 08:41:01;;;;;;;6.70;5.25;;;18.10;76.60;;;;;;5095632;28;20023;-72
2022/09/17 08:43:27;;;;;;;7.65;5.55;;;18.10;76.50;;;;;;5077573;28;20440;-73
2022/09/17 08:45:54;;;;;;;7.90;6.00;;;18.10;76.30;;;;;;5077019;28;20058;-72
2022/09/17 08:48:21;;;;;;;7.22;6.03;;;18.10;76.30;;;;;;5095972;28;20032;-72
2022/09/17 08:50:49;;;;;;;7.40;6.00;;;18.00;76.20;;;;;;5077139;28;20169;-72
2022/09/17 08:53:39;;;;;;;7.78;5.88;;;18.00;76.30;;;;;;5095156;28;20035;-71
2022/09/17 08:56:14;;;;;;;9.05;6.60;;;18.00;76.20;;;;;;5077160;28;20043;-71
2022/09/17 08:58:53;;;;;;;8.77;6.00;;;18.00;76.10;;;;;;5076982;28;20032;-72
2022/09/17 09:01:37;;;;;;;6.53;5.50;;;17.90;76.20;;;;;;5076881;28;20081;-71
2022/09/17 09:04:20;;;;;;;8.93;6.57;;;18.00;76.20;;;;;;5076917;28;20378;-73
2022/09/17 09:06:50;;;;;;;8.25;5.85;;;18.00;76.20;;;;;;5094798;28;20350;-72
2022/09/17 09:09:23;;;;;;;7.25;5.53;;;17.90;76.00;;;;;;5095064;28;20038;-71
2022/09/17 09:11:57;;;;;;;5.82;4.80;;;17.90;76.10;;;;;;5095122;28;20363;-72
2022/09/17 09:14:31;;;;;;;6.70;5.05;;;17.90;76.10;;;;;;5094759;28;20528;-72
2022/09/17 09:16:58;;;;;;;5.57;4.43;;;17.90;76.00;;;;;;5094740;28;20494;-72
2022/09/17 09:19:30;;;;;;;5.70;4.25;;;17.90;76.00;;;;;;5094398;28;20028;-72
2022/09/17 09:22:20;;;;;;;5.43;4.15;;;17.90;75.90;;;;;;5077101;28;20031;-73
2022/09/17 09:25:05;;;;;;;6.38;3.80;;;17.80;75.70;;;;;;5076280;28;20090;-71
2022/09/17 09:28:01;;;;;;;4.55;4.05;;;17.80;75.70;;;;;;5094546;28;20039;-72
2022/09/17 09:30:37;;;;;;;4.15;3.38;;;17.70;75.70;;;;;;5076637;28;20036;-71
2022/09/17 09:33:16;;;;;;;3.78;3.33;;;17.70;75.90;;;;;;5076425;28;20032;-71
2022/09/17 09:35:43;;;;;;;3.97;3.25;;;17.70;75.90;;;;;;5076557;28;20036;-71
2022/09/17 09:38:08;;;;;;;4.07;3.55;;;17.70;76.00;;;;;;5076225;28;20061;-72
2022/09/17 09:40:47;;;;;;;3.90;3.30;;;17.70;76.00;;;;;;5094283;28;20055;-72
2022/09/17 09:43:18;;;;;;;3.42;3.13;;;17.70;75.80;;;;;;5094614;28;20052;-72
2022/09/17 09:46:05;;;;;;;4.03;3.45;;;17.70;75.80;;;;;;5094370;28;20081;-71
2022/09/17 09:48:34;;;;;;;3.58;3.15;;;17.70;75.70;;;;;;5076179;28;20081;-72
2022/09/17 09:51:25;;;;;;;4.10;2.83;;;17.70;75.80;;;;;;5094241;28;20035;-72
2022/09/17 09:53:54;;;;;;;3.95;3.17;;;17.70;75.90;;;;;;5094214;28;20126;-71
2022/09/17 09:56:37;;;;;;;4.35;3.10;;;17.80;76.10;;;;;;5093951;28;20067;-72
2022/09/17 09:59:07;;;;;;;3.40;3.10;;;17.80;76.00;;;;;;5094128;28;20024;-71
2022/09/17 10:01:37;;;;;;;3.97;3.38;;;17.80;75.90;;;;;;5093969;28;20039;-71
2022/09/17 10:04:18;;;;;;;3.67;3.28;;;17.90;75.90;;;;;;5094092;28;20377;-71
2022/09/17 10:06:46;;;;;;;4.70;3.92;;;17.90;75.80;;;;;;5076900;28;20050;-71
2022/09/17 10:09:14;;;;;;;5.47;4.00;;;17.90;75.70;;;;;;5093888;28;20028;-73
2022/09/17 10:11:39;;;;;;;3.67;3.10;;;17.90;75.70;;;;;;5093935;28;20093;-72
2022/09/17 10:14:23;;;;;;;4.03;3.40;;;17.80;75.90;;;;;;5092937;28;20028;-72
2022/09/17 10:16:49;;;;;;;3.63;3.20;;;17.80;76.00;;;;;;5075400;28;20424;-72
2022/09/17 10:19:26;;;;;;;4.05;3.33;;;17.80;76.10;;;;;;5075774;28;20031;-72
2022/09/17 10:21:52;;;;;;;4.03;3.22;;;17.80;76.10;;;;;;5075138;28;20105;-72
2022/09/17 10:24:31;;;;;;;4.80;3.60;;;17.80;76.20;;;;;;5093692;28;20024;-72
2022/09/17 10:27:02;;;;;;;4.47;3.80;;;17.80;76.70;;;;;;5094396;28;20047;-71
2022/09/17 10:29:29;;;;;;;4.38;3.20;;;17.80;76.20;;;;;;5075770;28;20031;-72
2022/09/17 10:31:56;;;;;;;3.60;3.30;;;17.80;76.10;;;;;;5093920;28;20454;-72
2022/09/17 10:34:26;;;;;;;4.20;3.50;;;17.80;76.10;;;;;;5093501;28;20108;-71
2022/09/17 10:36:54;;;;;;;4.65;3.40;;;17.80;76.10;;;;;;5076394;28;20020;-72
2022/09/17 10:39:35;;;;;;;4.20;3.35;;;17.80;76.20;;;;;;5079650;28;20025;-70
2022/09/17 10:42:16;;;;;;;4.40;3.72;;;17.70;76.20;;;;;;5085891;28;20393;-72
2022/09/17 10:44:53;;;;;;;4.00;3.38;;;17.70;76.30;;;;;;5096258;28;20028;-74
2022/09/17 10:47:23;;;;;;;4.13;3.70;;;17.70;76.50;;;;;;5098050;28;20523;-72
2022/09/17 10:49:54;;;;;;;3.83;3.35;;;17.70;76.50;;;;;;5097508;28;20497;-72
2022/09/17 10:52:26;;;;;;;4.80;3.92;;;17.70;76.60;;;;;;5097855;28;20458;-72
2022/09/17 10:55:01;;;;;;;4.40;3.80;;;17.70;76.70;;;;;;5097395;28;20076;-72
2022/09/17 10:57:54;;;;;;;4.30;3.58;;;17.70;76.60;;;;;;5096326;28;20028;-71
2022/09/17 11:00:22;;;;;;;4.30;3.47;;;17.70;76.70;;;;;;5096213;28;20039;-71
2022/09/17 11:03:06;;;;;;;4.78;3.80;;;17.70;76.70;;;;;;5096278;28;20050;-72
2022/09/17 11:05:51;;;;;;;3.88;3.42;;;17.80;76.70;;;;;;5096077;28;20024;-73
2022/09/17 11:08:33;;;;;;;3.45;3.15;;;17.80;76.50;;;;;;5097204;28;20070;-71
2022/09/17 11:11:26;;;;;;;3.97;3.15;;;17.90;76.50;;;;;;5097513;28;20040;-72
2022/09/17 11:14:12;;;;;;;4.15;3.63;;;17.90;76.50;;;;;;5095766;28;20028;-73
2022/09/17 11:16:43;;;;;;;6.47;3.58;;;17.90;76.40;;;;;;5096019;28;20057;-71
2022/09/17 11:19:16;;;;;;;3.90;3.28;;;17.90;76.40;;;;;;5097121;28;20025;-71
2022/09/17 11:21:48;;;;;;;4.38;3.97;;;17.90;76.40;;;;;;5095840;28;20024;-71
2022/09/17 11:24:39;;;;;;;3.85;3.45;;;17.90;76.50;;;;;;5096834;28;20050;-72
2022/09/17 11:27:26;;;;;;;4.57;3.50;;;17.90;76.60;;;;;;5096975;28;20031;-71
2022/09/17 11:30:09;;;;;;;3.47;3.17;;;17.80;76.60;;;;;;5097395;28;20055;-72
2022/09/17 11:32:53;;;;;;;4.10;3.70;;;17.90;76.60;;;;;;5095638;28;20116;-72
2022/09/17 11:35:29;;;;;;;4.30;3.58;;;17.90;76.60;;;;;;5095942;28;20032;-72
2022/09/17 11:38:00;;;;;;;3.75;3.38;;;17.90;76.60;;;;;;5096858;28;20484;-72
2022/09/17 11:40:47;;;;;;;5.38;3.78;;;17.90;76.60;;;;;;5097010;28;20024;-71
2022/09/17 11:43:25;;;;;;;4.70;3.95;;;17.80;76.90;;;;;;5095430;28;20478;-72
2022/09/17 11:46:04;;;;;;;4.35;3.63;;;17.80;76.80;;;;;;5096833;28;20031;-71
2022/09/17 11:48:45;;;;;;;4.40;3.90;;;17.80;76.80;;;;;;5094593;28;20024;-73
2022/09/17 11:51:35;;;;;;;4.20;3.47;;;17.80;77.00;;;;;;5096428;28;20032;-71
2022/09/17 11:54:09;;;;;;;4.50;3.70;;;17.70;76.90;;;;;;5095621;28;20091;-71
2022/09/17 11:56:39;;;;;;;5.40;3.83;;;17.70;77.00;;;;;;5096606;28;20031;-72
2022/09/17 11:59:25;;;;;;;5.47;4.05;;;17.70;77.00;;;;;;5096323;28;20027;-71
2022/09/17 12:01:56;;;;;;;4.70;3.72;;;17.60;77.20;;;;;;5096174;28;20012;-72
2022/09/17 12:04:29;;;;;;;4.68;4.10;;;17.50;77.10;;;;;;5096544;28;20032;-72
2022/09/17 12:07:19;;;;;;;4.40;4.00;;;17.40;77.30;;;;;;5096170;28;20024;-71
2022/09/17 12:09:52;;;;;;;5.05;4.10;;;17.40;78.20;;;;;;5094977;28;20059;-72
2022/09/17 12:12:22;;;;;;;4.15;3.65;;;17.30;78.20;;;;;;5096069;28;20028;-72
2022/09/17 12:15:00;;;;;;;4.50;3.97;;;17.20;77.90;;;;;;5094835;28;20028;-72
2022/09/17 12:17:40;;;;;;;5.10;4.00;;;17.10;78.00;;;;;;5095810;28;20028;-71
2022/09/17 12:20:22;;;;;;;4.32;3.67;;;17.10;78.20;;;;;;5096413;28;20062;-70
2022/09/17 12:22:50;;;;;;;3.55;3.08;;;17.00;78.40;;;;;;5095982;28;20028;-71
2022/09/17 12:25:16;;;;;;;4.38;3.60;;;17.00;78.40;;;;;;5096451;28;20031;-70
2022/09/17 12:27:55;;;;;;;3.75;3.35;;;17.00;78.50;;;;;;5094747;28;20538;-71
2022/09/17 12:30:27;;;;;;;4.15;3.50;;;17.00;78.50;;;;;;5095836;28;20036;-72
2022/09/17 12:33:02;;;;;;;4.20;3.20;;;17.00;78.60;;;;;;5094709;28;20462;-73
2022/09/17 12:36:16;;;;;;;4.03;3.53;;;17.00;78.80;;;;;;5094407;28;20489;-72
2022/09/17 12:38:53;;;;;;;4.45;3.83;;;17.00;78.70;;;;;;4997112;28;20079;-73
2022/09/17 12:41:44;;;;;;;3.67;3.25;;;17.00;78.70;;;;;;5084774;28;20059;-72
2022/09/17 12:44:21;;;;;;;4.47;3.53;;;16.90;78.70;;;;;;5077238;28;20042;-72
2022/09/17 12:47:20;;;;;;;4.78;3.78;;;16.90;78.80;;;;;;5095322;28;20069;-72
2022/09/17 12:50:07;;;;;;;4.30;3.70;;;16.90;78.80;;;;;;5095068;28;20075;-72
2022/09/17 12:52:35;;;;;;;5.03;3.90;;;16.80;79.30;;;;;;5095598;28;20056;-71
2022/09/17 12:55:59;;;;;;;4.82;3.90;;;16.80;79.10;;;;;;5095174;28;20098;-71
2022/09/17 12:58:46;;;;;;;5.10;3.30;;;16.70;79.40;;;;;;5093172;28;20040;-72
2022/09/17 13:01:34;;;;;;;3.83;3.33;;;16.70;79.40;;;;;;5094628;28;20032;-72
2022/09/17 13:04:11;;;;;;;3.70;3.10;;;16.70;79.50;;;;;;5095235;28;20385;-72
2022/09/17 13:07:07;;;;;;;4.60;3.83;;;16.70;79.50;;;;;;5095180;28;20119;-72
2022/09/17 13:09:52;;;;;;;4.22;3.72;;;16.70;79.60;;;;;;5094840;28;20026;-71
2022/09/17 13:12:29;;;;;;;3.88;3.47;;;16.70;79.60;;;;;;5076627;28;20024;-71